createdAt,value
2018-12-14T00:02:26.453Z,70.57
2018-12-14T00:04:56.358Z,70.69
2018-12-14T00:07:27.036Z,70.38
2018-12-14T00:09:58.865Z,70.52
2018-12-14T00:12:29.578Z,70.42
2018-12-14T00:14:59.667Z,70.39
2018-12-14T00:17:29.314Z,70.58
2018-12-14T00:19:59.656Z,70.78
2018-12-14T00:22:29.838Z,70.89
2018-12-14T00:25:02.615Z,71.14
2018-12-14T00:27:35.809Z,70.92
2018-12-14T00:30:07.353Z,71.06
2018-12-14T00:32:37.031Z,70.94
2018-12-14T00:35:07.761Z,70.95
2018-12-14T00:37:37.282Z,70.78
2018-12-14T00:40:07.455Z,71.02
2018-12-14T00:42:37.557Z,71.10
2018-12-14T00:45:07.604Z,71.50
2018-12-14T00:47:37.506Z,71.59
2018-12-14T00:50:08.971Z,70.98
2018-12-14T00:52:40.575Z,71.41
2018-12-14T00:55:10.541Z,71.25
2018-12-14T00:57:41.515Z,71.42
2018-12-14T01:00:12.259Z,71.71
2018-12-14T01:02:41.893Z,71.48
2018-12-14T01:05:13.514Z,71.49
2018-12-14T01:07:43.276Z,71.43
2018-12-14T01:10:13.677Z,71.62
2018-12-14T01:12:43.266Z,71.51
2018-12-14T01:15:13.902Z,71.82
2018-12-14T01:17:43.996Z,72.05
2018-12-14T01:20:16.403Z,72.26
2018-12-14T01:22:47.846Z,72.30
2018-12-14T01:25:17.966Z,72.14
2018-12-14T01:27:50.213Z,72.03
2018-12-14T01:30:20.621Z,72.29
2018-12-14T01:32:50.644Z,72.26
2018-12-14T01:35:20.890Z,71.83
2018-12-14T01:37:51.242Z,71.84
2018-12-14T01:40:20.921Z,72.16
2018-12-14T01:42:51.420Z,71.62
2018-12-14T01:45:21.075Z,71.71
2018-12-14T01:47:50.922Z,71.71
2018-12-14T01:50:21.087Z,71.93
2018-12-14T01:52:50.906Z,71.87
2018-12-14T01:55:21.290Z,71.82
2018-12-14T01:57:51.678Z,71.38
2018-12-14T02:00:22.389Z,71.08
2018-12-14T02:02:52.299Z,70.29
2018-12-14T02:05:22.152Z,69.95
2018-12-14T02:07:51.641Z,69.50
2018-12-14T02:10:21.145Z,69.09
2018-12-14T02:12:51.591Z,68.77
2018-12-14T02:15:21.690Z,68.61
2018-12-14T02:17:51.313Z,68.34
2018-12-14T02:20:21.192Z,66.74
2018-12-14T02:22:50.971Z,65.61
2018-12-14T02:25:22.802Z,64.67
2018-12-14T02:27:52.955Z,63.79
2018-12-14T02:30:33.259Z,63.32
2018-12-14T02:33:04.390Z,62.55
2018-12-14T02:35:36.793Z,62.46
2018-12-14T02:38:07.892Z,62.44
2018-12-14T02:40:38.344Z,61.77
2018-12-14T02:43:07.849Z,61.60
2018-12-14T02:45:37.547Z,61.17
2018-12-14T02:48:08.656Z,61.01
2018-12-14T02:50:38.595Z,60.72
2018-12-14T02:53:08.709Z,60.96
2018-12-14T02:55:39.077Z,61.67
2018-12-14T02:58:08.881Z,62.58
2018-12-14T03:00:38.725Z,63.64
2018-12-14T03:03:09.094Z,64.40
2018-12-14T03:05:40.975Z,65.40
2018-12-14T03:08:11.555Z,66.31
2018-12-14T03:10:42.333Z,66.89
2018-12-14T03:13:11.991Z,67.07
2018-12-14T03:15:41.431Z,67.69
2018-12-14T03:18:11.772Z,67.79
2018-12-14T03:20:41.881Z,67.89
2018-12-14T03:23:12.070Z,67.52
2018-12-14T03:25:42.899Z,67.43
2018-12-14T03:28:20.126Z,67.26
2018-12-14T03:30:50.062Z,67.69
2018-12-14T03:33:19.925Z,67.83
2018-12-14T03:35:49.712Z,68.16
2018-12-14T03:38:20.528Z,68.07
2018-12-14T03:40:51.647Z,68.58
2018-12-14T03:43:23.419Z,69.13
2018-12-14T03:45:54.530Z,69.62
2018-12-14T03:48:24.948Z,69.41
2018-12-14T03:50:55.467Z,69.15
2018-12-14T03:53:26.108Z,69.62
2018-12-14T03:55:55.925Z,69.47
2018-12-14T03:58:25.742Z,69.56
2018-12-14T04:00:56.145Z,69.76
2018-12-14T04:03:26.287Z,69.91
2018-12-14T04:05:57.635Z,69.64
2018-12-14T04:08:27.703Z,69.72
2018-12-14T04:10:58.955Z,69.81
2018-12-14T04:13:37.838Z,69.76
2018-12-14T04:16:13.684Z,69.41
2018-12-14T04:18:44.753Z,69.30
2018-12-14T04:21:15.352Z,68.90
2018-12-14T04:23:45.537Z,68.97
2018-12-14T04:26:16.086Z,68.67
2018-12-14T04:28:46.056Z,68.95
2018-12-14T04:31:20.753Z,69.00
2018-12-14T04:33:52.962Z,68.80
2018-12-14T04:36:25.636Z,69.23
2018-12-14T04:38:55.999Z,68.65
2018-12-14T04:41:27.388Z,68.72
2018-12-14T04:43:57.050Z,68.69
2018-12-14T04:46:28.469Z,68.96
2018-12-14T04:49:01.747Z,68.87
2018-12-14T04:51:34.369Z,68.55
2018-12-14T04:54:05.706Z,68.64
2018-12-14T04:56:35.899Z,68.31
2018-12-14T04:59:09.632Z,68.43
2018-12-14T05:01:39.777Z,68.42
2018-12-14T05:04:10.097Z,68.39
2018-12-14T05:06:39.758Z,68.04
2018-12-14T05:09:10.955Z,68.51
2018-12-14T05:11:41.586Z,68.30
2018-12-14T05:14:13.225Z,68.22
2018-12-14T05:16:45.354Z,68.14
2018-12-14T05:19:16.904Z,68.16
2018-12-14T05:21:48.655Z,68.00
2018-12-14T05:24:19.039Z,67.72
2018-12-14T05:26:49.334Z,68.12
2018-12-14T05:29:19.542Z,67.78
2018-12-14T05:31:50.778Z,67.63
2018-12-14T05:34:21.261Z,67.64
2018-12-14T05:36:52.542Z,68.15
2018-12-14T05:39:22.481Z,67.73
2018-12-14T05:41:56.471Z,68.00
2018-12-14T05:44:26.464Z,68.13
2018-12-14T05:47:00.219Z,68.21
2018-12-14T05:49:30.181Z,68.80
2018-12-14T05:52:01.805Z,69.10
2018-12-14T05:54:31.849Z,69.20
2018-12-14T05:57:01.381Z,69.46
2018-12-14T05:59:32.083Z,69.75
2018-12-14T06:02:04.568Z,70.08
2018-12-14T06:04:33.924Z,70.12
2018-12-14T06:07:05.287Z,70.44
2018-12-14T06:09:34.996Z,70.29
2018-12-14T06:12:05.216Z,70.14
2018-12-14T06:14:35.966Z,70.61
2018-12-14T06:17:19.631Z,70.62
2018-12-14T06:19:49.092Z,70.73
2018-12-14T06:22:20.134Z,71.04
2018-12-14T06:24:49.609Z,71.28
2018-12-14T06:27:20.485Z,71.02
2018-12-14T06:29:51.361Z,71.46
2018-12-14T06:32:22.533Z,71.40
2018-12-14T06:34:52.763Z,71.37
2018-12-14T06:37:23.580Z,71.80
2018-12-14T06:39:55.581Z,71.88
2018-12-14T06:42:25.524Z,72.04
2018-12-14T06:44:57.437Z,71.72
2018-12-14T06:47:30.366Z,71.87
2018-12-14T06:50:00.814Z,71.94
2018-12-14T06:52:32.938Z,72.09
2018-12-14T06:55:02.908Z,71.66
2018-12-14T06:57:33.409Z,72.02
2018-12-14T07:00:03.572Z,71.84
2018-12-14T07:02:33.199Z,72.14
2018-12-14T07:05:03.176Z,72.02
2018-12-14T07:07:32.527Z,71.79
2018-12-14T07:10:02.151Z,71.58
2018-12-14T07:12:32.229Z,71.86
2018-12-14T07:15:05.057Z,72.02
2018-12-14T07:17:35.219Z,71.74
2018-12-14T07:20:07.543Z,72.07
2018-12-14T07:22:37.357Z,71.75
2018-12-14T07:25:09.672Z,71.62
2018-12-14T07:27:39.669Z,71.87
2018-12-14T07:30:10.586Z,71.76
2018-12-14T07:32:40.281Z,72.11
2018-12-14T07:35:10.913Z,72.18
2018-12-14T07:37:40.484Z,72.40
2018-12-14T07:40:12.495Z,72.02
2018-12-14T07:42:43.103Z,72.11
2018-12-14T07:45:13.618Z,72.03
2018-12-14T07:47:43.340Z,72.30
2018-12-14T07:50:14.037Z,72.13
2018-12-14T07:52:43.945Z,72.17
2018-12-14T07:55:13.639Z,72.00
2018-12-14T07:57:43.973Z,71.95
2018-12-14T08:00:13.682Z,71.93
2018-12-14T08:02:45.075Z,71.95
2018-12-14T08:05:15.256Z,72.41
2018-12-14T08:07:44.818Z,71.88
2018-12-14T08:10:29.788Z,71.79
2018-12-14T08:13:08.648Z,71.97
2018-12-14T08:15:41.327Z,71.52
2018-12-14T08:18:11.664Z,71.08
2018-12-14T08:20:41.967Z,70.62
2018-12-14T08:23:12.221Z,69.76
2018-12-14T08:25:42.939Z,69.52
2018-12-14T08:28:13.147Z,68.81
2018-12-14T08:30:43.825Z,68.48
2018-12-14T08:33:14.909Z,67.44
2018-12-14T08:35:44.730Z,66.89
2018-12-14T08:38:14.557Z,66.02
2018-12-14T08:40:45.423Z,66.40
2018-12-14T08:43:17.307Z,65.93
2018-12-14T08:45:47.495Z,65.49
2018-12-14T08:48:17.494Z,65.06
2018-12-14T08:50:48.547Z,64.31
2018-12-14T08:53:19.562Z,64.26
2018-12-14T08:55:49.314Z,64.02
2018-12-14T08:58:19.280Z,63.91
2018-12-14T09:00:49.700Z,63.46
2018-12-14T09:03:19.345Z,63.25
2018-12-14T09:05:53.082Z,62.77
2018-12-14T09:08:25.970Z,62.65
2018-12-14T09:10:55.576Z,62.22
2018-12-14T09:13:25.344Z,61.79
2018-12-14T09:15:55.017Z,61.68
2018-12-14T09:18:25.564Z,61.68
2018-12-14T09:21:14.108Z,61.20
2018-12-14T09:23:45.315Z,61.20
2018-12-14T09:26:15.723Z,61.16
2018-12-14T09:28:47.266Z,60.87
2018-12-14T09:31:18.084Z,61.28
2018-12-14T09:33:48.529Z,60.80
2018-12-14T09:36:19.662Z,60.28
2018-12-14T09:38:51.521Z,60.27
2018-12-14T09:41:27.113Z,59.52
2018-12-14T09:43:58.358Z,59.69
2018-12-14T09:46:28.822Z,59.56
2018-12-14T09:48:58.681Z,58.98
2018-12-14T09:51:28.271Z,59.21
2018-12-14T09:54:00.862Z,58.42
2018-12-14T09:56:33.820Z,58.48
2018-12-14T09:59:06.002Z,58.77
2018-12-14T10:01:35.967Z,58.07
2018-12-14T10:04:10.192Z,58.24
2018-12-14T10:06:43.087Z,58.64
2018-12-14T10:09:14.411Z,58.01
2018-12-14T10:11:55.119Z,57.87
2018-12-14T10:14:25.670Z,57.54
2018-12-14T10:16:56.114Z,57.66
2018-12-14T10:19:26.843Z,57.35
2018-12-14T10:21:56.883Z,57.16
2018-12-14T10:24:28.435Z,56.88
2018-12-14T10:26:58.628Z,56.92
2018-12-14T10:29:29.593Z,56.81
2018-12-14T10:31:59.684Z,56.70
2018-12-14T10:34:30.926Z,56.54
2018-12-14T10:37:05.835Z,56.78
2018-12-14T10:39:36.274Z,56.47
2018-12-14T10:42:08.707Z,56.85
2018-12-14T10:44:38.849Z,56.49
2018-12-14T10:47:08.836Z,56.68
2018-12-14T10:49:38.352Z,56.08
2018-12-14T10:52:08.320Z,56.01
2018-12-14T10:54:39.217Z,55.67
2018-12-14T10:57:08.570Z,55.75
2018-12-14T10:59:39.390Z,55.38
2018-12-14T11:02:09.969Z,54.95
2018-12-14T11:04:40.008Z,54.85
2018-12-14T11:07:11.289Z,55.08
2018-12-14T11:09:42.142Z,54.46
2018-12-14T11:12:11.555Z,54.14
2018-12-14T11:14:40.928Z,53.92
2018-12-14T11:17:10.491Z,53.67
2018-12-14T11:19:42.144Z,53.75
2018-12-14T11:22:11.616Z,53.18
2018-12-14T11:24:42.564Z,52.23
2018-12-14T11:27:11.992Z,52.44
2018-12-14T11:29:43.128Z,52.11
2018-12-14T11:32:12.864Z,52.55
2018-12-14T11:34:43.153Z,51.61
2018-12-14T11:37:14.229Z,51.02
2018-12-14T11:39:44.324Z,50.94
2018-12-14T11:42:13.833Z,50.96
2018-12-14T11:44:43.538Z,50.65
2018-12-14T11:47:18.184Z,50.55
2018-12-14T11:49:45.651Z,50.81
2018-12-14T11:52:16.973Z,50.96
2018-12-14T11:54:48.325Z,50.68
2018-12-14T11:57:18.848Z,50.53
2018-12-14T11:59:49.246Z,50.81
2018-12-14T12:02:20.075Z,50.88
2018-12-14T12:04:49.757Z,50.72
2018-12-14T12:07:19.981Z,50.49
2018-12-14T12:09:49.917Z,50.63
2018-12-14T12:12:21.011Z,50.80
2018-12-14T12:14:51.464Z,50.56
2018-12-14T12:17:22.762Z,50.35
2018-12-14T12:19:52.657Z,50.53
2018-12-14T12:22:22.247Z,51.13
2018-12-14T12:24:52.628Z,50.81
2018-12-14T12:27:22.761Z,50.55
2018-12-14T12:29:52.469Z,50.57
2018-12-14T12:32:22.245Z,50.15
2018-12-14T12:34:54.994Z,51.10
2018-12-14T12:37:26.453Z,51.32
2018-12-14T12:39:59.147Z,50.76
2018-12-14T12:42:29.978Z,51.47
2018-12-14T12:44:59.452Z,51.65
2018-12-14T12:47:30.748Z,51.38
2018-12-14T12:50:02.140Z,51.05
2018-12-14T12:52:34.064Z,50.78
2018-12-14T12:55:03.721Z,50.75
2018-12-14T12:57:35.118Z,50.45
2018-12-14T13:00:09.502Z,50.62
2018-12-14T13:02:42.743Z,51.32
2018-12-14T13:05:18.120Z,51.14
2018-12-14T13:07:52.048Z,51.18
2018-12-14T13:10:25.935Z,51.40
2018-12-14T13:12:57.048Z,51.31
2018-12-14T13:15:26.494Z,51.63
2018-12-14T13:17:57.152Z,51.71
2018-12-14T13:20:27.098Z,51.87
2018-12-14T13:23:58.812Z,51.36
2018-12-14T13:26:32.414Z,51.35
2018-12-14T13:29:02.371Z,51.34
2018-12-14T13:31:32.151Z,51.46
2018-12-14T13:34:01.736Z,51.64
2018-12-14T13:36:32.548Z,51.75
2018-12-14T13:39:02.499Z,52.00
2018-12-14T13:41:35.420Z,52.06
2018-12-14T13:44:06.294Z,52.28
2018-12-14T13:46:36.108Z,51.79
2018-12-14T13:49:06.311Z,52.06
2018-12-14T13:51:36.604Z,52.13
2018-12-14T13:54:21.708Z,51.92
2018-12-14T13:56:51.631Z,51.84
2018-12-14T13:59:22.792Z,51.97
2018-12-14T14:01:53.004Z,51.68
2018-12-14T14:04:23.431Z,51.89
2018-12-14T14:06:53.417Z,51.71
2018-12-14T14:09:25.252Z,51.72
2018-12-14T14:11:57.124Z,51.69
2018-12-14T14:14:27.527Z,51.92
2018-12-14T14:16:58.319Z,51.92
2018-12-14T14:19:32.288Z,51.68
2018-12-14T14:22:03.124Z,51.48
2018-12-14T14:24:34.328Z,51.74
2018-12-14T14:27:06.160Z,52.00
2018-12-14T14:29:37.279Z,51.66
2018-12-14T14:32:11.633Z,51.99
2018-12-14T14:34:47.943Z,51.82
2018-12-14T14:37:20.358Z,52.01
2018-12-14T14:39:54.539Z,52.03
2018-12-14T14:42:32.160Z,52.48
2018-12-14T14:45:06.739Z,52.31
2018-12-14T14:47:39.426Z,52.40
2018-12-14T14:50:14.295Z,52.66
2018-12-14T14:52:45.722Z,52.99
2018-12-14T14:55:19.117Z,53.39
2018-12-14T14:57:56.392Z,53.75
2018-12-14T15:00:31.643Z,53.62
2018-12-14T15:03:19.080Z,53.74
2018-12-14T15:05:49.965Z,53.89
2018-12-14T15:08:23.492Z,53.76
2018-12-14T15:10:55.928Z,53.63
2018-12-14T15:13:31.671Z,54.04
2018-12-14T15:16:05.847Z,54.23
2018-12-14T15:18:35.943Z,54.24
2018-12-14T15:21:08.182Z,54.20
2018-12-14T15:23:38.302Z,54.74
2018-12-14T15:26:10.114Z,54.50
2018-12-14T15:28:40.083Z,54.41
2018-12-14T15:31:12.044Z,54.42
2018-12-14T15:33:42.749Z,54.03
2018-12-14T15:36:14.148Z,53.99
2018-12-14T15:38:45.197Z,54.08
2018-12-14T15:41:15.923Z,54.16
2018-12-14T15:43:46.308Z,54.28
2018-12-14T15:46:17.892Z,54.22
2018-12-14T15:48:48.004Z,54.25
2018-12-14T15:51:20.805Z,54.33
2018-12-14T15:53:53.030Z,54.21
2018-12-14T15:56:25.396Z,54.42
2018-12-14T15:58:56.339Z,54.51
2018-12-14T16:01:30.248Z,53.90
2018-12-14T16:04:00.548Z,54.37
2018-12-14T16:06:33.083Z,54.48
2018-12-14T16:09:07.796Z,54.35
2018-12-14T16:11:47.078Z,54.48
2018-12-14T16:14:24.364Z,54.25
2018-12-14T16:16:55.213Z,54.17
2018-12-14T16:19:26.284Z,54.00
2018-12-14T16:22:00.225Z,54.11
2018-12-14T16:24:33.197Z,54.02
2018-12-14T16:27:10.019Z,53.96
2018-12-14T16:29:42.395Z,54.19
2018-12-14T16:32:17.881Z,54.46
2018-12-14T16:34:51.822Z,53.91
2018-12-14T16:37:24.608Z,53.91
2018-12-14T16:39:55.571Z,54.16
2018-12-14T16:42:28.314Z,54.01
2018-12-14T16:45:03.300Z,54.15
2018-12-14T16:47:36.663Z,54.44
2018-12-14T16:50:08.710Z,54.35
2018-12-14T16:52:42.163Z,54.09
2018-12-14T16:55:13.646Z,54.43
2018-12-14T16:57:49.735Z,54.30
2018-12-14T17:00:29.767Z,54.10
2018-12-14T17:03:02.887Z,53.94
2018-12-14T17:05:36.609Z,54.32
2018-12-14T17:08:12.027Z,54.69
2018-12-14T17:10:47.471Z,54.17
2018-12-14T17:13:21.208Z,54.09
2018-12-14T17:15:59.482Z,53.90
2018-12-14T17:18:35.346Z,54.33
2018-12-14T17:21:11.466Z,54.00
2018-12-14T17:23:43.034Z,54.32
2018-12-14T17:26:18.285Z,54.43
2018-12-14T17:28:52.089Z,54.27
2018-12-14T17:31:23.182Z,54.22
2018-12-14T17:33:56.891Z,54.19
2018-12-14T17:36:30.255Z,54.33
2018-12-14T17:39:02.026Z,54.51
2018-12-14T17:41:33.996Z,54.37
2018-12-14T17:44:08.718Z,54.28
2018-12-14T17:46:46.200Z,54.29
2018-12-14T17:49:23.443Z,54.28
2018-12-14T17:51:59.166Z,54.35
2018-12-14T17:54:31.323Z,54.58
2018-12-14T17:57:09.262Z,54.88
2018-12-14T17:59:41.388Z,54.75
2018-12-14T18:02:15.206Z,55.04
2018-12-14T18:04:46.849Z,54.71
2018-12-14T18:07:17.004Z,54.96
2018-12-14T18:09:47.383Z,54.86
2018-12-14T18:12:17.645Z,55.02
2018-12-14T18:14:51.056Z,54.98
2018-12-14T18:17:25.539Z,54.73
2018-12-14T18:19:56.342Z,54.91
2018-12-14T18:22:28.637Z,54.96
2018-12-14T18:24:58.590Z,55.30
2018-12-14T18:27:29.969Z,54.82
2018-12-14T18:30:00.475Z,54.78
2018-12-14T18:32:32.576Z,54.79
2018-12-14T18:35:05.663Z,54.96
2018-12-14T18:37:36.607Z,54.89
2018-12-14T18:40:10.818Z,55.24
2018-12-14T18:42:41.207Z,55.13
2018-12-14T18:45:14.298Z,55.08
2018-12-14T18:47:46.123Z,54.89
2018-12-14T18:50:17.835Z,54.77
2018-12-14T18:52:48.928Z,54.68
2018-12-14T18:55:19.505Z,54.91
2018-12-14T18:57:53.558Z,54.95
2018-12-14T19:00:23.252Z,55.21
2018-12-14T19:02:55.214Z,54.91
2018-12-14T19:05:26.201Z,54.76
2018-12-14T19:07:58.409Z,54.71
2018-12-14T19:10:29.836Z,54.60
2018-12-14T19:13:00.520Z,54.82
2018-12-14T19:15:32.584Z,54.54
2018-12-14T19:18:05.930Z,54.71
2018-12-14T19:20:40.426Z,54.73
2018-12-14T19:23:19.610Z,54.73
2018-12-14T19:25:50.920Z,54.89
2018-12-14T19:28:29.901Z,54.94
2018-12-14T19:31:01.165Z,55.18
2018-12-14T19:33:32.844Z,54.98
2018-12-14T19:36:04.298Z,55.15
2018-12-14T19:38:35.269Z,55.41
2018-12-14T19:41:08.611Z,55.11
2018-12-14T19:43:40.218Z,55.49
2018-12-14T19:46:15.063Z,55.46
2018-12-14T19:48:50.663Z,55.01
2018-12-14T19:51:21.321Z,55.32
2018-12-14T19:53:52.524Z,55.16
2018-12-14T19:56:26.843Z,55.43
2018-12-14T19:58:58.826Z,55.40
2018-12-14T20:01:34.591Z,55.42
2018-12-14T20:04:08.984Z,55.40
2018-12-14T20:06:43.933Z,55.58
2018-12-14T20:09:19.526Z,55.83
2018-12-14T20:11:49.955Z,55.61
2018-12-14T20:14:23.246Z,55.49
2018-12-14T20:17:04.211Z,56.00
2018-12-14T20:19:36.398Z,55.71
2018-12-14T20:22:10.015Z,56.14
2018-12-14T20:24:54.269Z,55.69
2018-12-14T20:27:44.131Z,55.25
2018-12-14T20:30:15.188Z,55.12
2018-12-14T20:32:48.014Z,55.49
2018-12-14T20:35:18.442Z,55.51
2018-12-14T20:37:58.187Z,55.64
2018-12-14T20:40:33.701Z,55.46
2018-12-14T20:43:05.141Z,55.70
2018-12-14T20:45:38.962Z,55.61
2018-12-14T20:48:10.316Z,55.36
2018-12-14T20:50:40.908Z,55.96
2018-12-14T20:53:38.688Z,56.03
2018-12-14T20:56:12.227Z,56.16
2018-12-14T20:58:42.665Z,56.25
2018-12-14T21:01:15.733Z,56.35
2018-12-14T21:03:55.305Z,56.40
2018-12-14T21:06:28.945Z,56.60
2018-12-14T21:09:03.520Z,56.83
2018-12-14T21:11:36.076Z,56.36
2018-12-14T21:14:19.365Z,57.11
2018-12-14T21:17:11.926Z,56.76
2018-12-14T21:19:46.373Z,57.22
2018-12-14T21:22:30.464Z,57.49
2018-12-14T21:25:10.329Z,58.08
2018-12-14T21:27:44.892Z,58.41
2018-12-14T21:30:17.665Z,58.49
2018-12-14T21:33:05.650Z,58.67
2018-12-14T21:35:39.699Z,58.97
2018-12-14T21:38:25.325Z,59.11
2018-12-14T21:41:14.696Z,59.61
2018-12-14T21:43:52.903Z,59.76
2018-12-14T21:46:32.671Z,59.88
2018-12-14T21:49:05.502Z,60.25
2018-12-14T21:51:38.353Z,60.42
2018-12-14T21:54:07.875Z,60.43
2018-12-14T21:56:38.139Z,59.68
2018-12-14T21:59:07.626Z,59.22
2018-12-14T22:01:37.729Z,59.18
2018-12-14T22:04:08.742Z,59.24
2018-12-14T22:06:41.355Z,59.26
2018-12-14T22:09:16.025Z,58.68
2018-12-14T22:11:52.625Z,58.09
2018-12-14T22:14:27.043Z,57.11
2018-12-14T22:16:58.890Z,56.41
2018-12-14T22:19:29.115Z,56.09
2018-12-14T22:21:59.189Z,55.48
2018-12-14T22:24:35.826Z,54.62
2018-12-14T22:27:06.845Z,53.96
2018-12-14T22:29:40.393Z,53.67
2018-12-14T22:32:16.499Z,53.03
2018-12-14T22:34:47.333Z,52.67
2018-12-14T22:37:17.606Z,52.25
2018-12-14T22:39:51.020Z,52.26
2018-12-14T22:42:21.042Z,51.94
2018-12-14T22:44:51.743Z,51.82
2018-12-14T22:47:23.193Z,52.07
2018-12-14T22:49:53.319Z,51.44
2018-12-14T22:52:23.888Z,51.29
2018-12-14T22:54:56.861Z,51.48
2018-12-14T22:57:29.324Z,51.22
2018-12-14T23:00:08.911Z,51.33
2018-12-14T23:02:49.404Z,50.76
2018-12-14T23:05:25.924Z,50.62
2018-12-14T23:08:02.035Z,51.06
2018-12-14T23:10:34.210Z,50.60
2018-12-14T23:13:08.277Z,50.97
2018-12-14T23:15:41.754Z,51.41
2018-12-14T23:18:16.387Z,51.04
2018-12-14T23:20:49.141Z,50.67
2018-12-14T23:23:27.426Z,50.57
2018-12-14T23:26:00.108Z,51.42
2018-12-14T23:28:31.105Z,53.60
2018-12-14T23:31:00.854Z,54.08
2018-12-14T23:33:34.171Z,54.89
2018-12-14T23:36:04.085Z,55.43
2018-12-14T23:38:33.801Z,55.25
2018-12-14T23:41:12.477Z,55.29
2018-12-14T23:43:42.278Z,55.54
2018-12-14T23:46:12.885Z,56.05
2018-12-14T23:48:42.977Z,56.69
2018-12-14T23:51:14.642Z,57.48
2018-12-14T23:53:47.628Z,58.24
2018-12-14T23:56:17.593Z,58.39
2018-12-14T23:58:51.052Z,58.52
